SLLS weather

Lagunillas Airport
Caraparicito, Santa Cruz Department, Bolivia

Public forecast

Using degrees Celsius for public forecast. Weather courtesy of forecast.io.

METAR (pilot weather report)

Report is more than 6 hours old.

Closest report is Monteagudo Airport, 22.2 nm (41.2 km) SW. Retrieved 2018/12/27 15:00 UTC (3 months ago):

SLAG 271500Z VRB02KT 9999 NSC 30/22 Q1009

TAF (pilot weather forecast)

Forecast is more than 12 hours old.

Closest forecast is Juana Azurduy De Padilla Airport, 99.4 nm (184.2 km) WNW. Retrieved 2016/05/13 12:12 UTC (3 years ago):

TAF COR SLSU 131000Z 1312/1412 00000KT 9999 BKN010 TX21/1319Z TN08/1411Z BECMG 1313/1315 SCT013 BECMG 1315/1317 03010KT FEW020 BECMG 1402/1404 00000KT